Pagrindinis puslapis
METAR-TAF:

METAR-TAF

Oro uostai :

Huslia, Aliaska, Jungtinės Amerikos Valstijos

platuma: 65-41-52N, ilguma: 156-21-05W, Aukštis: 65 m

Dabartinis oras

Ataskaita buvo paskelbta 29 minutes, ne 19:56 UTC
Vėjas 11 kt iš Rytų su gūsio iki 15 kt
Temperatūra -23°C
Drėgmė 63%
Slėgis 1017 hPa
Matomumas: 16.1 km
Giedras dangus

METAR: PAHL 161956Z AUTO 08011G15KT 10SM CLR M23/M28 A3002 RMK AO2 SLP175 T12331283 FZRANO

Laikas: 11:25 (20:25 UTC)


TAF: trūkstamas

Orai ataskaitas ir orų prognozės (METAR, TAF).

turimą stotys yra geltonos ir raudonos taškus žemėlapyje.

Perkelti pele per norėdami pamatyti stoties vardą.

Tada spustelėkite, norėdami matyti oro stebėjimo ir prognozės.

Norėdami pakeisti žemėlapį: spustelėkite ant žalios mygtukų su juodo kryžiaus žemyn,; žalią mygtuką su brūkšneliu, jei norite nutolinti; arba žalių rodyklių gretimoms žemėlapius.


METAR-TAF: